createdAt,value
2022-11-22T00:00:19.038Z,52.68
2022-11-22T00:01:19.103Z,47.58
2022-11-22T00:02:19.122Z,50.35
2022-11-22T00:03:19.001Z,45.47
2022-11-22T00:04:19.001Z,50.25
2022-11-22T00:05:18.982Z,51.44
2022-11-22T00:06:18.965Z,48.57
2022-11-22T00:07:19.017Z,52.10
2022-11-22T00:08:18.971Z,54.44
2022-11-22T00:09:18.994Z,50.19
2022-11-22T00:10:18.913Z,49.92
2022-11-22T00:11:19.898Z,45.90
2022-11-22T00:12:18.880Z,52.89
2022-11-22T00:13:18.946Z,49.45
2022-11-22T00:14:18.951Z,49.14
2022-11-22T00:15:18.908Z,43.17
2022-11-22T00:16:18.884Z,44.57
2022-11-22T00:17:18.897Z,48.29
2022-11-22T00:18:18.926Z,49.18
2022-11-22T00:19:18.881Z,51.44
2022-11-22T00:20:18.845Z,62.97
2022-11-22T00:21:18.841Z,47.14
2022-11-22T00:22:18.872Z,45.72
2022-11-22T00:23:18.901Z,51.69
2022-11-22T00:24:18.796Z,45.17
2022-11-22T00:25:18.820Z,44.92
2022-11-22T00:26:18.821Z,44.51
2022-11-22T00:27:18.814Z,50.70
2022-11-22T00:28:18.774Z,50.49
2022-11-22T00:29:18.801Z,44.79
2022-11-22T00:30:18.760Z,44.42
2022-11-22T00:31:18.756Z,44.53
2022-11-22T00:32:18.763Z,46.56
2022-11-22T00:33:18.804Z,48.68
2022-11-22T00:34:18.786Z,51.39
2022-11-22T00:35:18.722Z,49.80
2022-11-22T00:36:18.771Z,44.15
2022-11-22T00:37:18.709Z,44.55
2022-11-22T00:38:18.679Z,45.77
2022-11-22T00:39:18.709Z,53.25
2022-11-22T00:40:18.687Z,51.12
2022-11-22T00:41:18.662Z,44.34
2022-11-22T00:42:18.708Z,50.38
2022-11-22T00:43:18.688Z,53.40
2022-11-22T00:44:18.652Z,55.52
2022-11-22T00:45:18.664Z,46.60
2022-11-22T00:46:18.740Z,51.16
2022-11-22T00:47:18.640Z,46.05
2022-11-22T00:48:18.713Z,56.81
2022-11-22T00:49:18.656Z,45.08
2022-11-22T00:50:18.605Z,48.28
2022-11-22T00:51:18.596Z,54.63
2022-11-22T00:52:18.665Z,57.59
2022-11-22T00:53:18.582Z,57.34
2022-11-22T00:54:18.609Z,49.17
2022-11-22T00:55:18.560Z,53.11
2022-11-22T00:56:18.614Z,52.01
2022-11-22T00:57:19.509Z,46.80
2022-11-22T00:58:50.974Z,52.33
2022-11-22T00:59:18.597Z,54.45
2022-11-22T01:00:18.565Z,45.59
2022-11-22T01:01:18.714Z,44.39
2022-11-22T01:02:18.523Z,44.45
2022-11-22T01:03:18.527Z,46.25
2022-11-22T01:04:18.553Z,49.53
2022-11-22T01:05:18.477Z,47.43
2022-11-22T01:06:18.470Z,50.53
2022-11-22T01:07:18.599Z,51.37
2022-11-22T01:08:18.458Z,51.32
2022-11-22T01:09:18.503Z,43.69
2022-11-22T01:10:18.521Z,43.61
2022-11-22T01:11:18.444Z,47.70
2022-11-22T01:12:18.414Z,56.91
2022-11-22T01:13:18.415Z,45.34
2022-11-22T01:14:18.452Z,44.84
2022-11-22T01:15:18.481Z,49.90
2022-11-22T01:16:18.391Z,53.36
2022-11-22T01:17:18.408Z,50.62
2022-11-22T01:18:18.448Z,44.73
2022-11-22T01:19:19.388Z,56.48
2022-11-22T01:20:18.381Z,55.08
2022-11-22T01:21:18.368Z,46.36
2022-11-22T01:22:18.399Z,46.65
2022-11-22T01:23:18.423Z,45.55
2022-11-22T01:24:18.376Z,62.77
2022-11-22T01:25:18.350Z,45.36
2022-11-22T01:26:18.348Z,51.97
2022-11-22T01:27:18.309Z,45.12
2022-11-22T01:28:18.386Z,51.40
2022-11-22T01:29:19.345Z,43.97
2022-11-22T01:30:18.303Z,48.84
2022-11-22T01:31:18.281Z,50.83
2022-11-22T01:32:18.283Z,52.98
2022-11-22T01:33:18.306Z,58.64
2022-11-22T01:34:18.270Z,45.15
2022-11-22T01:35:18.289Z,45.37
2022-11-22T01:36:18.249Z,44.93
2022-11-22T01:37:18.343Z,53.10
2022-11-22T01:38:18.202Z,62.39
2022-11-22T01:39:18.234Z,54.79
2022-11-22T01:40:18.246Z,55.89
2022-11-22T01:41:18.218Z,58.39
2022-11-22T01:42:18.195Z,48.76
2022-11-22T01:43:18.189Z,58.52
2022-11-22T01:44:18.208Z,58.50
2022-11-22T01:45:18.228Z,59.04
2022-11-22T01:46:18.166Z,59.07
2022-11-22T01:47:18.170Z,57.68
2022-11-22T01:48:18.195Z,57.20
2022-11-22T01:49:18.181Z,49.53
2022-11-22T01:50:18.152Z,53.14
2022-11-22T01:51:18.151Z,50.63
2022-11-22T01:52:18.120Z,50.09
2022-11-22T01:53:18.158Z,46.91
2022-11-22T01:54:18.121Z,52.03
2022-11-22T01:55:18.186Z,49.95
2022-11-22T01:56:18.090Z,43.30
2022-11-22T01:57:18.168Z,50.72
2022-11-22T01:58:18.152Z,44.93
2022-11-22T01:59:18.109Z,50.29
2022-11-22T02:00:18.074Z,42.60
2022-11-22T02:01:18.137Z,42.25
2022-11-22T02:02:18.096Z,42.22
2022-11-22T02:03:18.046Z,42.40
2022-11-22T02:04:18.057Z,42.49
2022-11-22T02:05:18.033Z,49.59
2022-11-22T02:06:18.060Z,44.11
2022-11-22T02:07:18.050Z,47.87
2022-11-22T02:08:18.019Z,49.16
2022-11-22T02:09:18.031Z,49.52
2022-11-22T02:10:18.011Z,54.45
2022-11-22T02:11:17.994Z,45.40
2022-11-22T02:12:18.009Z,50.10
2022-11-22T02:13:17.994Z,44.74
2022-11-22T02:14:17.969Z,44.43
2022-11-22T02:15:17.954Z,56.02
2022-11-22T02:16:18.007Z,51.28
2022-11-22T02:17:17.998Z,43.52
2022-11-22T02:18:17.962Z,50.58
2022-11-22T02:19:17.928Z,43.97
2022-11-22T02:20:17.952Z,43.17
2022-11-22T02:21:17.912Z,44.97
2022-11-22T02:22:17.927Z,46.90
2022-11-22T02:23:17.915Z,42.27
2022-11-22T02:24:17.920Z,42.54
2022-11-22T02:25:17.869Z,42.62
2022-11-22T02:26:17.880Z,48.50
2022-11-22T02:27:17.919Z,42.23
2022-11-22T02:28:49.794Z,42.38
2022-11-22T02:29:17.840Z,42.37
2022-11-22T02:30:17.902Z,42.36
2022-11-22T02:31:17.821Z,48.21
2022-11-22T02:32:18.836Z,43.60
2022-11-22T02:33:17.829Z,42.89
2022-11-22T02:34:17.827Z,47.75
2022-11-22T02:35:17.793Z,42.87
2022-11-22T02:36:17.818Z,49.59
2022-11-22T02:37:17.780Z,42.54
2022-11-22T02:38:17.771Z,48.86
2022-11-22T02:39:17.799Z,45.36
2022-11-22T02:40:17.770Z,49.94
2022-11-22T02:41:17.744Z,50.79
2022-11-22T02:42:17.741Z,50.02
2022-11-22T02:43:17.731Z,54.75
2022-11-22T02:44:17.749Z,42.73
2022-11-22T02:45:17.731Z,49.93
2022-11-22T02:46:17.711Z,42.17
2022-11-22T02:47:17.714Z,42.05
2022-11-22T02:48:17.690Z,49.56
2022-11-22T02:49:17.704Z,42.69
2022-11-22T02:50:17.703Z,48.22
2022-11-22T02:51:17.670Z,48.63
2022-11-22T02:52:17.676Z,51.38
2022-11-22T02:53:17.648Z,49.42
2022-11-22T02:54:17.718Z,43.11
2022-11-22T02:55:17.656Z,52.07
2022-11-22T02:56:17.632Z,42.90
2022-11-22T02:57:17.660Z,41.79
2022-11-22T02:58:17.623Z,41.84
2022-11-22T02:59:17.607Z,42.61
2022-11-22T03:00:17.604Z,49.57
2022-11-22T03:01:17.670Z,42.56
2022-11-22T03:02:17.610Z,51.34
2022-11-22T03:03:17.589Z,43.37
2022-11-22T03:04:17.621Z,48.09
2022-11-22T03:05:17.580Z,54.84
2022-11-22T03:06:17.586Z,45.81
2022-11-22T03:07:17.633Z,48.27
2022-11-22T03:08:17.547Z,52.23
2022-11-22T03:09:17.561Z,56.25
2022-11-22T03:10:17.524Z,44.88
2022-11-22T03:11:17.574Z,54.91
2022-11-22T03:12:17.519Z,57.08
2022-11-22T03:13:17.522Z,45.12
2022-11-22T03:14:17.502Z,49.60
2022-11-22T03:15:17.506Z,53.14
2022-11-22T03:16:17.514Z,51.24
2022-11-22T03:17:17.470Z,44.36
2022-11-22T03:18:17.510Z,50.75
2022-11-22T03:19:17.454Z,51.29
2022-11-22T03:20:17.455Z,60.15
2022-11-22T03:21:17.467Z,53.55
2022-11-22T03:22:17.436Z,42.43
2022-11-22T03:23:17.509Z,42.47
2022-11-22T03:24:17.420Z,56.04
2022-11-22T03:25:17.464Z,47.91
2022-11-22T03:26:17.501Z,60.85
2022-11-22T03:27:17.398Z,49.08
2022-11-22T03:28:17.409Z,47.48
2022-11-22T03:29:17.388Z,43.62
2022-11-22T03:30:17.384Z,56.76
2022-11-22T03:31:17.380Z,51.04
2022-11-22T03:32:17.362Z,58.63
2022-11-22T03:33:17.371Z,55.32
2022-11-22T03:34:17.340Z,57.35
2022-11-22T03:35:17.386Z,45.08
2022-11-22T03:36:17.336Z,52.36
2022-11-22T03:37:17.354Z,56.79
2022-11-22T03:38:17.326Z,58.95
2022-11-22T03:39:17.328Z,57.39
2022-11-22T03:40:17.314Z,44.23
2022-11-22T03:41:17.308Z,58.42
2022-11-22T03:42:21.629Z,42.94
2022-11-22T03:43:18.279Z,49.45
2022-11-22T03:44:17.324Z,51.42
2022-11-22T03:45:17.320Z,58.14
2022-11-22T03:46:17.276Z,48.38
2022-11-22T03:47:17.240Z,48.84
2022-11-22T04:03:54.583Z,52.66
2022-11-22T04:04:54.563Z,57.09
2022-11-22T04:05:54.571Z,62.60
2022-11-22T04:06:54.539Z,61.72
2022-11-22T04:07:54.548Z,59.59
2022-11-22T04:08:54.607Z,61.60
2022-11-22T04:09:55.678Z,55.73
2022-11-22T04:10:55.667Z,52.70
2022-11-22T04:11:55.682Z,54.13
2022-11-22T04:12:55.644Z,52.57
2022-11-22T04:13:55.657Z,58.03
2022-11-22T04:14:55.609Z,61.68
2022-11-22T04:15:55.636Z,57.44
2022-11-22T04:16:55.597Z,65.49
2022-11-22T04:17:55.631Z,61.41
2022-11-22T04:18:55.694Z,61.76
2022-11-22T04:19:55.616Z,63.12
2022-11-22T04:20:55.591Z,65.72
2022-11-22T04:21:55.570Z,55.37
2022-11-22T04:22:55.576Z,65.19
2022-11-22T04:23:55.593Z,59.78
2022-11-22T04:24:55.663Z,58.12
2022-11-22T04:25:55.576Z,65.18
2022-11-22T04:26:55.599Z,65.38
2022-11-22T04:27:55.543Z,65.32
2022-11-22T04:29:09.127Z,62.94
2022-11-22T04:29:57.520Z,59.07
2022-11-22T04:30:55.534Z,58.47
2022-11-22T04:31:55.559Z,51.48
2022-11-22T04:32:55.500Z,69.28
2022-11-22T04:33:55.517Z,63.26
2022-11-22T04:34:55.491Z,64.92
2022-11-22T04:35:55.497Z,64.23
2022-11-22T04:36:55.456Z,65.04
2022-11-22T04:37:55.489Z,65.01
2022-11-22T04:38:55.479Z,68.36
2022-11-22T04:39:55.475Z,67.40
2022-11-22T04:40:55.431Z,64.84
2022-11-22T04:41:55.435Z,62.82
2022-11-22T04:42:55.412Z,66.93
2022-11-22T04:43:55.431Z,68.88
2022-11-22T04:44:55.379Z,67.17
2022-11-22T04:45:55.389Z,62.44
2022-11-22T04:46:55.431Z,66.04
2022-11-22T04:47:55.380Z,70.48
2022-11-22T04:48:55.372Z,65.78
2022-11-22T04:49:55.387Z,64.68
2022-11-22T04:50:55.339Z,67.46
2022-11-22T04:51:55.353Z,59.43
2022-11-22T04:52:55.362Z,66.17
2022-11-22T04:53:55.320Z,68.64
2022-11-22T04:54:55.350Z,71.56
2022-11-22T04:55:55.329Z,54.80
2022-11-22T04:56:55.330Z,59.39
2022-11-22T04:57:59.529Z,65.64
2022-11-22T04:58:57.275Z,65.19
2022-11-22T04:59:55.311Z,65.98
2022-11-22T05:00:55.328Z,64.32
2022-11-22T05:01:55.294Z,66.79
2022-11-22T05:02:55.268Z,61.95
2022-11-22T05:03:55.246Z,64.96
2022-11-22T05:04:55.280Z,59.75
2022-11-22T05:05:55.225Z,59.04
2022-11-22T05:06:55.262Z,70.74
2022-11-22T05:07:55.236Z,59.94
2022-11-22T05:08:55.804Z,65.46
2022-11-22T05:09:55.198Z,67.23
2022-11-22T05:10:55.189Z,58.78
2022-11-22T05:11:55.198Z,65.31
2022-11-22T05:12:55.218Z,68.30
2022-11-22T05:13:55.204Z,66.46
2022-11-22T05:14:55.180Z,67.17
2022-11-22T05:15:55.179Z,65.03
2022-11-22T05:16:55.156Z,61.79
2022-11-22T05:17:55.170Z,68.47
2022-11-22T05:18:55.143Z,66.12
2022-11-22T05:19:55.142Z,72.67
2022-11-22T05:20:55.129Z,68.30
2022-11-22T05:21:55.104Z,64.19
2022-11-22T05:22:55.153Z,65.39
2022-11-22T05:23:55.140Z,58.05
2022-11-22T05:24:55.143Z,69.57
2022-11-22T05:25:55.110Z,68.66
2022-11-22T05:26:55.118Z,74.17
2022-11-22T05:27:55.107Z,53.78
2022-11-22T05:28:55.069Z,70.08
2022-11-22T05:29:55.060Z,67.96
2022-11-22T05:30:55.048Z,68.70
2022-11-22T05:31:55.057Z,68.67
2022-11-22T05:32:55.040Z,69.11
2022-11-22T05:33:55.067Z,70.14
2022-11-22T05:34:55.025Z,64.19
2022-11-22T05:35:55.026Z,67.69
2022-11-22T05:36:55.007Z,67.01
2022-11-22T05:37:55.041Z,71.07
2022-11-22T05:38:55.006Z,68.06
2022-11-22T05:39:54.985Z,67.87
2022-11-22T05:40:55.013Z,72.12
2022-11-22T05:41:55.818Z,67.17
2022-11-22T05:42:54.980Z,69.61
2022-11-22T05:43:54.965Z,71.20
2022-11-22T05:44:54.945Z,71.58
2022-11-22T05:45:55.008Z,61.94
2022-11-22T05:46:55.049Z,67.14
2022-11-22T05:47:54.934Z,73.60
2022-11-22T05:48:54.947Z,69.05
2022-11-22T05:49:54.974Z,69.56
2022-11-22T05:50:55.951Z,72.27
2022-11-22T05:51:54.893Z,73.91
2022-11-22T05:52:54.906Z,69.92
2022-11-22T05:53:54.899Z,68.22
2022-11-22T05:54:54.879Z,68.94
2022-11-22T05:55:54.872Z,65.83
2022-11-22T05:56:54.890Z,66.28
2022-11-22T05:57:54.871Z,66.94
2022-11-22T05:58:54.841Z,65.12
2022-11-22T05:59:54.833Z,70.49
2022-11-22T06:00:54.819Z,72.34
2022-11-22T06:01:54.871Z,67.81
2022-11-22T06:02:54.808Z,70.70
2022-11-22T06:03:54.789Z,72.49
2022-11-22T06:04:54.879Z,69.82
2022-11-22T06:05:54.784Z,72.78
2022-11-22T06:06:54.832Z,68.06
2022-11-22T06:07:54.839Z,69.19
2022-11-22T06:08:54.768Z,71.64
2022-11-22T06:09:54.743Z,72.04
2022-11-22T06:10:54.743Z,73.36
2022-11-22T06:11:54.752Z,74.13
2022-11-22T06:12:54.755Z,71.46
2022-11-22T06:13:54.743Z,73.71
2022-11-22T06:14:54.732Z,73.76
2022-11-22T06:15:54.731Z,67.61
2022-11-22T06:16:54.760Z,73.55
2022-11-22T06:17:54.763Z,71.95
2022-11-22T06:18:54.701Z,70.95
2022-11-22T06:19:54.778Z,73.16
2022-11-22T06:20:54.725Z,72.99
2022-11-22T06:21:54.680Z,71.29
2022-11-22T06:22:54.761Z,72.27
2022-11-22T06:23:54.668Z,75.48
2022-11-22T06:24:54.688Z,70.27
2022-11-22T06:25:54.761Z,74.25
2022-11-22T06:26:54.743Z,70.37
2022-11-22T06:27:54.647Z,73.72
2022-11-22T06:28:54.666Z,70.80
2022-11-22T06:29:54.641Z,68.81
2022-11-22T06:30:54.605Z,73.22
2022-11-22T06:31:55.911Z,72.90
2022-11-22T06:32:54.596Z,69.80
2022-11-22T06:33:54.599Z,73.41
2022-11-22T06:34:54.613Z,73.57
2022-11-22T06:35:54.604Z,70.10
2022-11-22T06:36:54.633Z,70.94
2022-11-22T06:38:00.386Z,71.24
2022-11-22T06:38:56.581Z,73.75
2022-11-22T06:39:54.534Z,72.05
2022-11-22T06:40:54.527Z,73.52
2022-11-22T06:41:54.532Z,71.28
2022-11-22T06:42:54.534Z,62.56
2022-11-22T06:43:54.523Z,73.38
2022-11-22T06:44:54.487Z,71.73
2022-11-22T06:45:54.504Z,71.61
2022-11-22T06:46:54.476Z,73.15
2022-11-22T06:47:54.510Z,73.78
2022-11-22T06:48:54.485Z,72.58
2022-11-22T06:49:54.457Z,72.32
2022-11-22T06:50:54.505Z,73.01
2022-11-22T06:51:54.434Z,70.65
2022-11-22T06:52:54.497Z,71.02
2022-11-22T06:53:54.461Z,70.55
2022-11-22T06:54:54.578Z,71.73
2022-11-22T06:55:59.781Z,70.38
2022-11-22T06:56:56.394Z,69.78
2022-11-22T06:57:54.420Z,69.46
2022-11-22T06:58:54.438Z,70.14
2022-11-22T06:59:54.422Z,69.62
2022-11-22T07:00:54.487Z,69.33
2022-11-22T07:01:54.458Z,72.39
2022-11-22T07:02:54.379Z,71.66
2022-11-22T07:03:54.402Z,68.37
2022-11-22T07:05:23.310Z,72.63
2022-11-22T07:05:56.372Z,69.87
2022-11-22T07:06:54.326Z,74.83
2022-11-22T07:07:56.781Z,64.17
2022-11-22T07:08:55.337Z,71.79
2022-11-22T07:09:56.602Z,69.89
2022-11-22T07:10:55.281Z,74.19
2022-11-22T07:11:54.296Z,74.58
2022-11-22T07:12:54.309Z,71.59
2022-11-22T07:13:54.300Z,67.18
2022-11-22T07:15:26.687Z,71.93
2022-11-22T07:15:54.275Z,57.48
2022-11-22T07:16:54.301Z,69.81
2022-11-22T07:17:54.281Z,69.71
2022-11-22T07:18:54.220Z,69.86
2022-11-22T07:19:54.235Z,65.13
2022-11-22T07:20:54.197Z,70.57
2022-11-22T07:21:54.218Z,73.06
2022-11-22T07:22:54.193Z,66.21
2022-11-22T07:23:54.249Z,73.32
2022-11-22T07:24:54.246Z,69.10
2022-11-22T07:25:54.199Z,72.02
2022-11-22T07:26:54.222Z,70.75
2022-11-22T07:27:54.171Z,69.59
2022-11-22T07:28:54.154Z,64.06
2022-11-22T07:29:54.153Z,70.61
2022-11-22T07:30:54.180Z,65.63
2022-11-22T07:31:54.155Z,69.52
2022-11-22T07:32:54.138Z,72.50
2022-11-22T07:33:55.150Z,70.01
2022-11-22T07:34:54.116Z,62.47
2022-11-22T07:35:54.120Z,66.39
2022-11-22T07:36:59.097Z,66.87
2022-11-22T07:37:56.140Z,64.77
2022-11-22T07:38:54.101Z,73.36
2022-11-22T07:39:54.085Z,69.28
2022-11-22T07:40:54.069Z,67.08
2022-11-22T07:41:54.048Z,67.16
2022-11-22T07:42:58.277Z,66.17
2022-11-22T07:43:55.135Z,71.26
2022-11-22T07:44:54.022Z,70.25
2022-11-22T07:45:54.841Z,70.69
2022-11-22T07:46:54.032Z,73.27
2022-11-22T07:47:54.004Z,72.09
2022-11-22T07:48:54.037Z,67.67
2022-11-22T07:49:54.014Z,73.71
2022-11-22T07:50:53.994Z,73.47
2022-11-22T07:51:53.994Z,65.60
2022-11-22T07:52:53.994Z,70.49
2022-11-22T07:53:53.994Z,72.74
2022-11-22T07:54:53.974Z,72.19
2022-11-22T07:55:54.002Z,71.17
2022-11-22T07:56:53.937Z,69.39
2022-11-22T07:57:53.940Z,66.72
2022-11-22T07:58:54.014Z,68.34
2022-11-22T07:59:53.918Z,75.42
2022-11-22T08:00:53.995Z,65.80
2022-11-22T08:01:54.139Z,67.21
2022-11-22T08:02:54.010Z,72.30
2022-11-22T08:03:53.902Z,68.28
2022-11-22T08:04:53.939Z,71.42
2022-11-22T08:05:53.912Z,63.22
2022-11-22T08:06:53.999Z,60.04
2022-11-22T08:07:53.908Z,65.03
2022-11-22T08:09:00.357Z,70.47
2022-11-22T08:09:55.890Z,67.02
2022-11-22T08:10:53.843Z,64.32
2022-11-22T08:11:53.880Z,66.80
2022-11-22T08:12:53.834Z,63.73
2022-11-22T08:13:53.870Z,72.24
2022-11-22T08:14:53.875Z,66.45
2022-11-22T08:15:54.847Z,72.80
2022-11-22T08:16:54.938Z,69.79
2022-11-22T08:17:53.796Z,63.53
2022-11-22T08:18:53.876Z,70.09
2022-11-22T08:19:53.880Z,69.95
2022-11-22T08:20:53.773Z,69.37
2022-11-22T08:21:58.244Z,68.67
2022-11-22T08:22:54.765Z,62.93
2022-11-22T08:23:53.776Z,68.82
2022-11-22T08:24:53.774Z,69.41
2022-11-22T08:25:53.775Z,64.68
2022-11-22T08:26:53.752Z,71.45
2022-11-22T08:28:25.672Z,71.26
2022-11-22T08:28:53.766Z,74.27
2022-11-22T08:29:53.757Z,71.62
2022-11-22T08:30:53.731Z,70.43
2022-11-22T08:31:53.687Z,64.06
2022-11-22T08:32:53.719Z,72.79
2022-11-22T08:33:53.708Z,71.07
2022-11-22T08:34:53.748Z,61.91
2022-11-22T08:35:53.712Z,61.80
2022-11-22T08:36:53.670Z,70.32
2022-11-22T08:37:53.654Z,66.88
2022-11-22T08:38:53.681Z,67.89
2022-11-22T08:39:53.644Z,68.84
2022-11-22T08:40:53.617Z,69.87
2022-11-22T08:41:53.646Z,72.54
2022-11-22T08:42:53.591Z,68.78
2022-11-22T08:44:26.633Z,64.38
2022-11-22T08:44:53.586Z,67.30
2022-11-22T08:45:53.635Z,68.60
2022-11-22T08:46:53.577Z,67.38
2022-11-22T08:47:53.554Z,72.81
2022-11-22T08:48:53.576Z,64.80
2022-11-22T08:49:53.580Z,66.28
2022-11-22T08:50:53.695Z,68.07
2022-11-22T08:51:53.606Z,67.07
2022-11-22T08:52:53.513Z,66.71
2022-11-22T08:53:53.533Z,65.37
2022-11-22T08:54:53.514Z,66.57
2022-11-22T08:55:53.476Z,67.71
2022-11-22T08:56:53.518Z,68.85
2022-11-22T08:57:53.573Z,59.15
2022-11-22T08:58:53.527Z,73.23
2022-11-22T08:59:53.488Z,69.76
2022-11-22T09:00:53.549Z,63.96
2022-11-22T09:01:53.550Z,66.30
2022-11-22T09:02:53.434Z,72.07
2022-11-22T09:03:53.484Z,64.86
2022-11-22T09:04:53.426Z,71.55
2022-11-22T09:08:24.674Z,64.97
2022-11-22T09:09:08.691Z,66.21
2022-11-22T09:09:55.410Z,66.90
2022-11-22T09:10:53.390Z,67.69
2022-11-22T09:11:53.379Z,67.44
2022-11-22T09:12:53.392Z,69.63
2022-11-22T09:13:53.364Z,64.82
2022-11-22T09:14:53.354Z,68.39
2022-11-22T09:15:53.357Z,72.02
2022-11-22T09:16:53.367Z,71.19
2022-11-22T09:17:53.343Z,68.69
2022-11-22T09:18:53.313Z,73.83
2022-11-22T09:19:53.312Z,69.20
2022-11-22T09:20:53.319Z,62.45
2022-11-22T09:21:53.322Z,67.56
2022-11-22T09:22:53.374Z,69.91
2022-11-22T09:23:53.333Z,71.87
2022-11-22T09:24:53.263Z,58.23
2022-11-22T09:25:53.318Z,69.55
2022-11-22T09:27:25.169Z,65.80
2022-11-22T09:27:53.354Z,70.24
2022-11-22T09:28:53.275Z,67.44
2022-11-22T09:29:53.243Z,68.02
2022-11-22T09:30:53.307Z,63.42
2022-11-22T09:31:53.247Z,59.24
2022-11-22T09:32:53.201Z,70.58
2022-11-22T09:33:53.194Z,67.97
2022-11-22T09:34:53.236Z,69.31
2022-11-22T09:35:53.225Z,64.14
2022-11-22T09:36:53.202Z,69.35
2022-11-22T09:37:53.214Z,65.49
2022-11-22T09:38:53.247Z,64.17
2022-11-22T09:39:53.151Z,68.85
2022-11-22T09:40:54.210Z,71.61
2022-11-22T09:41:53.185Z,71.64
2022-11-22T09:42:53.146Z,69.90
2022-11-22T09:43:53.128Z,63.67
2022-11-22T09:44:53.113Z,65.73
2022-11-22T09:45:53.127Z,68.70
2022-11-22T09:46:53.144Z,62.04
2022-11-22T09:47:53.143Z,72.14
2022-11-22T09:48:53.091Z,69.99
2022-11-22T09:49:53.114Z,65.64
2022-11-22T09:50:53.054Z,65.35
2022-11-22T09:51:53.056Z,64.26
2022-11-22T09:52:53.151Z,64.86
2022-11-22T09:53:53.078Z,67.64
2022-11-22T09:54:53.119Z,63.12
2022-11-22T09:55:53.051Z,69.47
2022-11-22T09:56:53.037Z,67.63
2022-11-22T09:57:53.028Z,66.33
2022-11-22T09:58:53.058Z,60.89
2022-11-22T09:59:53.006Z,72.02
2022-11-22T10:00:53.086Z,70.76
2022-11-22T10:01:53.017Z,62.21
2022-11-22T10:03:00.946Z,66.70
2022-11-22T10:03:55.124Z,68.35
2022-11-22T10:04:52.975Z,67.35
2022-11-22T10:05:52.965Z,67.36
2022-11-22T10:06:52.975Z,69.94
2022-11-22T10:07:52.953Z,65.24
2022-11-22T10:08:53.986Z,68.46
2022-11-22T10:09:52.918Z,66.16
2022-11-22T10:10:53.009Z,69.40
2022-11-22T10:11:52.902Z,68.55
2022-11-22T10:12:52.917Z,62.21
2022-11-22T10:13:53.874Z,71.11
2022-11-22T10:14:53.956Z,67.35
2022-11-22T10:15:52.942Z,66.27
2022-11-22T10:16:52.885Z,70.88
2022-11-22T10:17:52.873Z,67.32
2022-11-22T10:18:52.842Z,65.15
2022-11-22T10:19:52.894Z,62.58
2022-11-22T10:20:52.949Z,70.19
2022-11-22T10:21:52.880Z,68.22
2022-11-22T10:22:52.843Z,67.60
2022-11-22T10:23:52.848Z,67.29
2022-11-22T10:25:24.768Z,67.09
2022-11-22T10:25:52.809Z,70.96
2022-11-22T10:27:25.807Z,65.36
2022-11-22T10:27:56.261Z,59.65
2022-11-22T10:28:54.783Z,66.55
2022-11-22T10:29:52.783Z,69.01
2022-11-22T10:30:53.484Z,63.48
2022-11-22T10:31:52.755Z,69.78
2022-11-22T10:32:52.756Z,66.86
2022-11-22T10:33:52.783Z,66.66
2022-11-22T10:34:52.785Z,69.77
2022-11-22T10:35:52.780Z,68.38
2022-11-22T10:36:52.732Z,70.19
2022-11-22T10:37:52.745Z,67.49
2022-11-22T10:38:52.769Z,63.79
2022-11-22T10:39:52.715Z,70.79
2022-11-22T10:40:52.756Z,71.86
2022-11-22T10:42:24.651Z,68.71
2022-11-22T10:42:52.752Z,63.34
2022-11-22T10:43:52.684Z,68.37
2022-11-22T10:45:24.579Z,67.48
2022-11-22T10:45:52.682Z,63.70
2022-11-22T10:46:56.745Z,67.99
2022-11-22T10:47:53.679Z,67.41
2022-11-22T10:48:52.664Z,64.87
2022-11-22T10:49:52.631Z,70.36
2022-11-22T10:50:52.690Z,69.47
2022-11-22T10:51:52.619Z,70.15
2022-11-22T10:52:52.629Z,64.56
2022-11-22T10:53:52.597Z,64.75
2022-11-22T10:54:52.615Z,66.00
2022-11-22T10:55:52.596Z,69.72
2022-11-22T10:56:52.621Z,69.45
2022-11-22T10:57:52.600Z,65.83
2022-11-22T10:58:52.663Z,72.04
2022-11-22T10:59:52.536Z,65.88
2022-11-22T11:00:52.617Z,68.79
2022-11-22T11:01:52.555Z,65.92
2022-11-22T11:02:52.554Z,71.00
2022-11-22T11:03:52.565Z,70.57
2022-11-22T11:04:52.568Z,65.71
2022-11-22T11:06:22.803Z,67.14
2022-11-22T11:07:11.789Z,69.82
2022-11-22T11:08:04.110Z,70.29
2022-11-22T11:09:47.636Z,66.88
2022-11-22T11:10:10.880Z,69.87
2022-11-22T11:10:54.458Z,68.64
2022-11-22T11:11:53.435Z,65.51
2022-11-22T11:12:52.471Z,69.29
2022-11-22T11:13:52.451Z,69.70
2022-11-22T11:15:24.412Z,67.39
2022-11-22T11:15:56.257Z,53.39
2022-11-22T11:16:53.413Z,65.14
2022-11-22T11:17:52.425Z,62.88
2022-11-22T11:18:52.414Z,73.16
2022-11-22T11:19:52.450Z,66.45
2022-11-22T11:20:52.398Z,63.20
2022-11-22T11:21:52.363Z,65.42
2022-11-22T11:23:13.798Z,66.56
2022-11-22T11:23:54.386Z,68.02
2022-11-22T11:24:52.417Z,64.06
2022-11-22T11:25:52.353Z,69.70
2022-11-22T11:26:52.335Z,68.96
2022-11-22T11:27:52.319Z,61.83
2022-11-22T11:28:52.348Z,68.56
2022-11-22T11:29:52.355Z,68.06
2022-11-22T11:30:52.513Z,69.47
2022-11-22T11:31:52.298Z,70.03
2022-11-22T11:32:53.095Z,65.13
2022-11-22T11:33:52.301Z,66.70
2022-11-22T11:34:52.349Z,69.39
2022-11-22T11:35:52.295Z,66.09
2022-11-22T11:36:52.278Z,66.66
2022-11-22T11:37:52.267Z,66.68
2022-11-22T11:38:52.237Z,66.87
2022-11-22T11:39:52.259Z,67.24
2022-11-22T11:40:52.242Z,70.20
2022-11-22T11:41:52.261Z,72.24
2022-11-22T11:42:52.247Z,64.76
2022-11-22T11:43:53.060Z,65.85
2022-11-22T11:44:52.236Z,63.98
2022-11-22T11:45:52.190Z,69.19
2022-11-22T11:46:52.282Z,63.48
2022-11-22T11:47:52.181Z,68.85
2022-11-22T11:48:52.161Z,61.66
2022-11-22T11:49:52.187Z,65.61
2022-11-22T11:50:52.180Z,65.77
2022-11-22T11:51:52.134Z,69.03
2022-11-22T11:52:52.326Z,66.04
2022-11-22T11:53:52.123Z,68.04
2022-11-22T11:54:52.184Z,64.98
2022-11-22T11:55:52.125Z,66.61
2022-11-22T11:56:52.110Z,68.92
2022-11-22T11:57:52.078Z,67.38
2022-11-22T11:58:52.154Z,68.35
2022-11-22T11:59:52.131Z,66.71
2022-11-22T12:00:52.129Z,70.74
2022-11-22T12:01:52.097Z,65.79
2022-11-22T12:02:52.182Z,63.89
2022-11-22T12:03:52.077Z,69.80
2022-11-22T12:04:52.107Z,67.27
2022-11-22T12:05:52.115Z,68.75
2022-11-22T12:06:52.021Z,70.58
2022-11-22T12:07:52.136Z,65.87
2022-11-22T12:08:52.037Z,70.30
2022-11-22T12:09:52.003Z,68.60
2022-11-22T12:10:52.001Z,67.95
2022-11-22T12:11:51.986Z,66.44
2022-11-22T12:12:52.055Z,66.47
2022-11-22T12:15:53.953Z,66.27
2022-11-22T12:16:51.966Z,60.80
2022-11-22T12:17:51.994Z,70.75
2022-11-22T12:18:52.013Z,66.34
2022-11-22T12:19:51.996Z,64.91
2022-11-22T12:20:51.915Z,66.86
2022-11-22T12:21:51.911Z,65.91
2022-11-22T12:22:51.913Z,69.37
2022-11-22T12:23:51.938Z,70.32
2022-11-22T12:25:09.769Z,66.16
2022-11-22T12:25:53.960Z,67.58
2022-11-22T12:26:52.013Z,66.10
2022-11-22T12:27:51.872Z,66.60
2022-11-22T12:28:51.861Z,65.66
2022-11-22T12:29:51.865Z,68.79
2022-11-22T12:30:51.853Z,70.26
2022-11-22T12:31:51.888Z,61.32
2022-11-22T12:32:51.877Z,65.93
2022-11-22T12:33:51.930Z,69.07
2022-11-22T12:34:51.908Z,67.26
2022-11-22T12:35:51.861Z,65.83
2022-11-22T12:36:51.807Z,64.76
2022-11-22T12:37:51.820Z,67.76
2022-11-22T12:38:51.842Z,69.61
2022-11-22T12:39:51.857Z,68.12
2022-11-22T12:40:51.779Z,69.24
2022-11-22T12:41:51.796Z,67.67
2022-11-22T12:42:51.772Z,70.33
2022-11-22T12:43:51.783Z,68.00
2022-11-22T12:44:51.727Z,65.18
2022-11-22T12:45:51.735Z,69.41
2022-11-22T12:46:51.733Z,64.76
2022-11-22T12:47:51.710Z,63.39
2022-11-22T12:48:23.573Z,70.90
2022-11-22T12:48:51.752Z,62.53
2022-11-22T12:49:51.710Z,68.11
2022-11-22T12:50:51.773Z,76.03
2022-11-22T12:51:51.684Z,69.35
2022-11-22T12:52:51.691Z,66.94
2022-11-22T12:53:51.680Z,66.14
2022-11-22T12:54:51.737Z,65.64
2022-11-22T12:55:51.671Z,65.72
2022-11-22T12:56:51.654Z,68.03
2022-11-22T12:57:51.658Z,68.26
2022-11-22T12:58:51.627Z,69.45
2022-11-22T12:59:51.639Z,69.83
2022-11-22T13:00:51.682Z,69.93
2022-11-22T13:01:51.652Z,64.36
2022-11-22T13:02:55.962Z,60.66
2022-11-22T13:03:53.628Z,65.36
2022-11-22T13:04:51.634Z,70.57
2022-11-22T13:05:51.628Z,68.33
2022-11-22T13:06:51.660Z,71.62
2022-11-22T13:07:51.629Z,71.05
2022-11-22T13:08:54.604Z,64.53
2022-11-22T13:09:53.627Z,67.47
2022-11-22T13:10:51.559Z,68.64